sensor_id;sensor_type;location;lat;lon;timestamp;temperature;humidity
46364;DHT22;32071;49.036;9.344;2024-02-28T00:00:27;7.50;99.90
46364;DHT22;32071;49.036;9.344;2024-02-28T00:02:53;7.50;99.90
46364;DHT22;32071;49.036;9.344;2024-02-28T00:05:19;7.50;99.90
46364;DHT22;32071;49.036;9.344;2024-02-28T00:07:44;7.60;99.90
46364;DHT22;32071;49.036;9.344;2024-02-28T00:10:11;7.60;99.90
46364;DHT22;32071;49.036;9.344;2024-02-28T00:12:36;7.60;99.90
46364;DHT22;32071;49.036;9.344;2024-02-28T00:15:05;7.60;99.90
46364;DHT22;32071;49.036;9.344;2024-02-28T00:17:30;7.60;99.90
46364;DHT22;32071;49.036;9.344;2024-02-28T00:19:56;7.60;99.90
46364;DHT22;32071;49.036;9.344;2024-02-28T00:22:21;7.60;99.90
46364;DHT22;32071;49.036;9.344;2024-02-28T00:24:47;7.60;99.90
46364;DHT22;32071;49.036;9.344;2024-02-28T00:27:13;7.60;99.90
46364;DHT22;32071;49.036;9.344;2024-02-28T00:29:39;7.50;99.90
46364;DHT22;32071;49.036;9.344;2024-02-28T00:32:05;7.50;99.90
46364;DHT22;32071;49.036;9.344;2024-02-28T00:34:30;7.50;99.90
46364;DHT22;32071;49.036;9.344;2024-02-28T00:36:56;7.50;99.90
46364;DHT22;32071;49.036;9.344;2024-02-28T00:39:22;7.50;99.90
46364;DHT22;32071;49.036;9.344;2024-02-28T00:41:47;7.50;99.90
46364;DHT22;32071;49.036;9.344;2024-02-28T00:44:13;7.50;99.90
46364;DHT22;32071;49.036;9.344;2024-02-28T00:46:39;7.50;99.90
46364;DHT22;32071;49.036;9.344;2024-02-28T00:49:05;7.50;99.90
46364;DHT22;32071;49.036;9.344;2024-02-28T00:51:30;7.50;99.90
46364;DHT22;32071;49.036;9.344;2024-02-28T00:53:56;7.50;99.90
46364;DHT22;32071;49.036;9.344;2024-02-28T00:56:22;7.60;99.90
46364;DHT22;32071;49.036;9.344;2024-02-28T00:58:47;7.50;99.90
46364;DHT22;32071;49.036;9.344;2024-02-28T01:01:13;7.50;99.90
46364;DHT22;32071;49.036;9.344;2024-02-28T01:03:38;7.50;99.90
46364;DHT22;32071;49.036;9.344;2024-02-28T01:06:04;7.50;99.90
46364;DHT22;32071;49.036;9.344;2024-02-28T01:08:30;7.50;99.90
46364;DHT22;32071;49.036;9.344;2024-02-28T01:10:55;7.60;99.90
46364;DHT22;32071;49.036;9.344;2024-02-28T01:13:21;7.60;99.90
46364;DHT22;32071;49.036;9.344;2024-02-28T01:15:47;7.60;99.90
46364;DHT22;32071;49.036;9.344;2024-02-28T01:18:12;7.50;99.90
46364;DHT22;32071;49.036;9.344;2024-02-28T01:20:38;7.60;99.90
46364;DHT22;32071;49.036;9.344;2024-02-28T01:23:03;7.60;99.90
46364;DHT22;32071;49.036;9.344;2024-02-28T01:25:29;7.60;99.90
46364;DHT22;32071;49.036;9.344;2024-02-28T01:27:56;7.60;99.90
46364;DHT22;32071;49.036;9.344;2024-02-28T01:30:23;7.60;99.90
46364;DHT22;32071;49.036;9.344;2024-02-28T01:32:49;7.60;99.90
46364;DHT22;32071;49.036;9.344;2024-02-28T01:35:14;7.60;99.90
46364;DHT22;32071;49.036;9.344;2024-02-28T01:37:40;7.60;99.90
46364;DHT22;32071;49.036;9.344;2024-02-28T01:40:06;7.60;99.90
46364;DHT22;32071;49.036;9.344;2024-02-28T01:42:32;7.60;99.90
46364;DHT22;32071;49.036;9.344;2024-02-28T01:44:57;7.60;99.90
46364;DHT22;32071;49.036;9.344;2024-02-28T01:47:23;7.50;99.90
46364;DHT22;32071;49.036;9.344;2024-02-28T01:49:49;7.60;99.90
46364;DHT22;32071;49.036;9.344;2024-02-28T01:52:16;7.50;99.90
46364;DHT22;32071;49.036;9.344;2024-02-28T01:54:43;7.50;99.90
46364;DHT22;32071;49.036;9.344;2024-02-28T01:57:09;7.50;99.90
46364;DHT22;32071;49.036;9.344;2024-02-28T01:59:35;7.40;99.90
46364;DHT22;32071;49.036;9.344;2024-02-28T02:02:01;7.40;99.90
46364;DHT22;32071;49.036;9.344;2024-02-28T02:04:27;7.40;99.90
46364;DHT22;32071;49.036;9.344;2024-02-28T02:06:53;7.40;99.90
46364;DHT22;32071;49.036;9.344;2024-02-28T02:09:19;7.40;99.90
46364;DHT22;32071;49.036;9.344;2024-02-28T02:11:45;7.40;99.90
46364;DHT22;32071;49.036;9.344;2024-02-28T02:14:11;7.40;99.90
46364;DHT22;32071;49.036;9.344;2024-02-28T02:16:36;7.30;99.90
46364;DHT22;32071;49.036;9.344;2024-02-28T02:19:02;7.30;99.90
46364;DHT22;32071;49.036;9.344;2024-02-28T02:21:34;7.30;99.90
46364;DHT22;32071;49.036;9.344;2024-02-28T02:24:02;7.40;99.90
46364;DHT22;32071;49.036;9.344;2024-02-28T02:26:28;7.40;99.90
46364;DHT22;32071;49.036;9.344;2024-02-28T02:28:53;7.40;99.90
46364;DHT22;32071;49.036;9.344;2024-02-28T02:31:20;7.40;99.90
46364;DHT22;32071;49.036;9.344;2024-02-28T02:33:45;7.30;99.90
46364;DHT22;32071;49.036;9.344;2024-02-28T02:36:11;7.30;99.90
46364;DHT22;32071;49.036;9.344;2024-02-28T02:38:36;7.30;99.90
46364;DHT22;32071;49.036;9.344;2024-02-28T02:41:02;7.30;99.90
46364;DHT22;32071;49.036;9.344;2024-02-28T02:43:27;7.30;99.90
46364;DHT22;32071;49.036;9.344;2024-02-28T02:45:53;7.30;99.90
46364;DHT22;32071;49.036;9.344;2024-02-28T02:48:18;7.30;99.90
46364;DHT22;32071;49.036;9.344;2024-02-28T02:50:44;7.30;99.90
46364;DHT22;32071;49.036;9.344;2024-02-28T02:53:10;7.30;99.90
46364;DHT22;32071;49.036;9.344;2024-02-28T02:55:36;7.30;99.90
46364;DHT22;32071;49.036;9.344;2024-02-28T02:58:02;7.20;99.90
46364;DHT22;32071;49.036;9.344;2024-02-28T03:00:28;7.20;99.90
46364;DHT22;32071;49.036;9.344;2024-02-28T03:02:54;7.30;99.90
46364;DHT22;32071;49.036;9.344;2024-02-28T03:05:19;7.30;99.90
46364;DHT22;32071;49.036;9.344;2024-02-28T03:07:45;7.20;99.90
46364;DHT22;32071;49.036;9.344;2024-02-28T03:10:10;7.20;99.90
46364;DHT22;32071;49.036;9.344;2024-02-28T03:12:36;7.20;99.90
46364;DHT22;32071;49.036;9.344;2024-02-28T03:15:02;7.10;99.90
46364;DHT22;32071;49.036;9.344;2024-02-28T03:17:28;7.20;99.90
46364;DHT22;32071;49.036;9.344;2024-02-28T03:19:54;7.20;99.90
46364;DHT22;32071;49.036;9.344;2024-02-28T03:22:20;7.10;99.90
46364;DHT22;32071;49.036;9.344;2024-02-28T03:24:45;7.10;99.90
46364;DHT22;32071;49.036;9.344;2024-02-28T03:27:11;7.20;99.90
46364;DHT22;32071;49.036;9.344;2024-02-28T03:29:37;7.20;99.90
46364;DHT22;32071;49.036;9.344;2024-02-28T03:32:03;7.20;99.90
46364;DHT22;32071;49.036;9.344;2024-02-28T03:34:29;7.20;99.90
46364;DHT22;32071;49.036;9.344;2024-02-28T03:36:55;7.20;99.90
46364;DHT22;32071;49.036;9.344;2024-02-28T03:39:20;7.30;99.90
46364;DHT22;32071;49.036;9.344;2024-02-28T03:41:46;7.30;99.90
46364;DHT22;32071;49.036;9.344;2024-02-28T03:44:11;7.30;99.90
46364;DHT22;32071;49.036;9.344;2024-02-28T03:46:37;7.30;99.90
46364;DHT22;32071;49.036;9.344;2024-02-28T03:49:02;7.30;99.90
46364;DHT22;32071;49.036;9.344;2024-02-28T03:51:28;7.30;99.90
46364;DHT22;32071;49.036;9.344;2024-02-28T03:53:55;7.30;99.90
46364;DHT22;32071;49.036;9.344;2024-02-28T03:56:27;7.30;99.90
46364;DHT22;32071;49.036;9.344;2024-02-28T03:58:53;7.30;99.90
46364;DHT22;32071;49.036;9.344;2024-02-28T04:01:19;7.30;99.90
46364;DHT22;32071;49.036;9.344;2024-02-28T04:03:44;7.30;99.90
46364;DHT22;32071;49.036;9.344;2024-02-28T04:06:11;7.30;99.90
46364;DHT22;32071;49.036;9.344;2024-02-28T04:08:37;7.20;99.90
46364;DHT22;32071;49.036;9.344;2024-02-28T04:11:03;7.20;99.90
46364;DHT22;32071;49.036;9.344;2024-02-28T04:13:28;7.20;99.90
46364;DHT22;32071;49.036;9.344;2024-02-28T04:15:54;7.20;99.90
46364;DHT22;32071;49.036;9.344;2024-02-28T04:18:19;7.20;99.90
46364;DHT22;32071;49.036;9.344;2024-02-28T04:20:45;7.20;99.90
46364;DHT22;32071;49.036;9.344;2024-02-28T04:23:10;7.20;99.90
46364;DHT22;32071;49.036;9.344;2024-02-28T04:25:36;7.20;99.90
46364;DHT22;32071;49.036;9.344;2024-02-28T04:28:05;7.10;99.90
46364;DHT22;32071;49.036;9.344;2024-02-28T04:30:31;7.20;99.90
46364;DHT22;32071;49.036;9.344;2024-02-28T04:32:57;7.20;99.90
46364;DHT22;32071;49.036;9.344;2024-02-28T04:35:22;7.10;99.90
46364;DHT22;32071;49.036;9.344;2024-02-28T04:37:48;7.20;99.90
46364;DHT22;32071;49.036;9.344;2024-02-28T04:40:13;7.10;99.90
46364;DHT22;32071;49.036;9.344;2024-02-28T04:42:39;7.20;99.90
46364;DHT22;32071;49.036;9.344;2024-02-28T04:45:05;7.10;99.90
46364;DHT22;32071;49.036;9.344;2024-02-28T04:47:31;7.20;99.90
46364;DHT22;32071;49.036;9.344;2024-02-28T04:49:57;7.20;99.90
46364;DHT22;32071;49.036;9.344;2024-02-28T04:52:23;7.20;99.90
46364;DHT22;32071;49.036;9.344;2024-02-28T04:54:50;7.20;99.90
46364;DHT22;32071;49.036;9.344;2024-02-28T04:57:15;7.20;99.90
46364;DHT22;32071;49.036;9.344;2024-02-28T04:59:42;7.20;99.90
46364;DHT22;32071;49.036;9.344;2024-02-28T05:02:08;7.20;99.90
46364;DHT22;32071;49.036;9.344;2024-02-28T05:04:34;7.10;99.90
46364;DHT22;32071;49.036;9.344;2024-02-28T05:06:59;7.10;99.90
46364;DHT22;32071;49.036;9.344;2024-02-28T05:09:25;7.10;99.90
46364;DHT22;32071;49.036;9.344;2024-02-28T05:11:50;7.10;99.90
46364;DHT22;32071;49.036;9.344;2024-02-28T05:14:16;7.10;99.90
46364;DHT22;32071;49.036;9.344;2024-02-28T05:16:41;7.10;99.90
46364;DHT22;32071;49.036;9.344;2024-02-28T05:19:07;7.10;99.90
46364;DHT22;32071;49.036;9.344;2024-02-28T05:21:39;7.10;99.90
46364;DHT22;32071;49.036;9.344;2024-02-28T05:24:06;7.00;99.90
46364;DHT22;32071;49.036;9.344;2024-02-28T05:26:31;7.00;99.90
46364;DHT22;32071;49.036;9.344;2024-02-28T05:28:59;7.00;99.90
46364;DHT22;32071;49.036;9.344;2024-02-28T05:31:26;7.00;99.90
46364;DHT22;32071;49.036;9.344;2024-02-28T05:33:53;7.00;99.90
46364;DHT22;32071;49.036;9.344;2024-02-28T05:36:20;7.00;99.90
46364;DHT22;32071;49.036;9.344;2024-02-28T05:38:46;6.90;99.90
46364;DHT22;32071;49.036;9.344;2024-02-28T05:41:11;6.90;99.90
46364;DHT22;32071;49.036;9.344;2024-02-28T05:43:38;6.90;99.90
46364;DHT22;32071;49.036;9.344;2024-02-28T05:46:03;6.90;99.90
46364;DHT22;32071;49.036;9.344;2024-02-28T05:48:29;6.80;99.90
46364;DHT22;32071;49.036;9.344;2024-02-28T05:50:55;6.80;99.90
46364;DHT22;32071;49.036;9.344;2024-02-28T05:53:20;6.80;99.90
46364;DHT22;32071;49.036;9.344;2024-02-28T05:55:46;6.70;99.90
46364;DHT22;32071;49.036;9.344;2024-02-28T05:58:13;6.70;99.90
46364;DHT22;32071;49.036;9.344;2024-02-28T06:00:39;6.70;99.90
46364;DHT22;32071;49.036;9.344;2024-02-28T06:03:04;6.70;99.90
46364;DHT22;32071;49.036;9.344;2024-02-28T06:05:30;6.70;99.90
46364;DHT22;32071;49.036;9.344;2024-02-28T06:07:56;6.70;99.90
46364;DHT22;32071;49.036;9.344;2024-02-28T06:10:21;6.70;99.90
46364;DHT22;32071;49.036;9.344;2024-02-28T06:12:47;6.80;99.90
46364;DHT22;32071;49.036;9.344;2024-02-28T06:15:12;6.80;99.90
46364;DHT22;32071;49.036;9.344;2024-02-28T06:17:38;6.70;99.90
46364;DHT22;32071;49.036;9.344;2024-02-28T06:20:05;6.80;99.90
46364;DHT22;32071;49.036;9.344;2024-02-28T06:22:31;6.70;99.90
46364;DHT22;32071;49.036;9.344;2024-02-28T06:24:57;6.70;99.90
46364;DHT22;32071;49.036;9.344;2024-02-28T06:27:22;6.70;99.90
46364;DHT22;32071;49.036;9.344;2024-02-28T06:29:48;6.70;99.90
46364;DHT22;32071;49.036;9.344;2024-02-28T06:32:14;6.80;99.90
46364;DHT22;32071;49.036;9.344;2024-02-28T06:34:40;6.80;99.90
46364;DHT22;32071;49.036;9.344;2024-02-28T06:37:07;6.80;99.90
46364;DHT22;32071;49.036;9.344;2024-02-28T06:39:32;6.90;99.90
46364;DHT22;32071;49.036;9.344;2024-02-28T06:41:58;6.90;99.90
46364;DHT22;32071;49.036;9.344;2024-02-28T06:44:24;6.90;99.90
46364;DHT22;32071;49.036;9.344;2024-02-28T06:46:50;7.00;99.90
46364;DHT22;32071;49.036;9.344;2024-02-28T06:49:15;7.00;99.90
46364;DHT22;32071;49.036;9.344;2024-02-28T06:51:43;6.90;99.90
46364;DHT22;32071;49.036;9.344;2024-02-28T06:54:08;7.00;99.90
46364;DHT22;32071;49.036;9.344;2024-02-28T06:56:35;7.00;99.90
46364;DHT22;32071;49.036;9.344;2024-02-28T06:59:01;7.00;99.90
46364;DHT22;32071;49.036;9.344;2024-02-28T07:01:27;7.00;99.90
46364;DHT22;32071;49.036;9.344;2024-02-28T07:03:52;6.90;99.90
46364;DHT22;32071;49.036;9.344;2024-02-28T07:06:18;6.90;99.90
46364;DHT22;32071;49.036;9.344;2024-02-28T07:08:43;6.90;99.90
46364;DHT22;32071;49.036;9.344;2024-02-28T07:11:15;6.90;99.90
46364;DHT22;32071;49.036;9.344;2024-02-28T07:13:41;6.80;99.90
46364;DHT22;32071;49.036;9.344;2024-02-28T07:16:07;6.80;99.90
46364;DHT22;32071;49.036;9.344;2024-02-28T07:18:33;6.80;99.90
46364;DHT22;32071;49.036;9.344;2024-02-28T07:20:59;6.90;99.90
46364;DHT22;32071;49.036;9.344;2024-02-28T07:23:25;6.80;99.90
46364;DHT22;32071;49.036;9.344;2024-02-28T07:25:50;6.80;99.90
46364;DHT22;32071;49.036;9.344;2024-02-28T07:28:16;6.70;99.90
46364;DHT22;32071;49.036;9.344;2024-02-28T07:30:41;6.70;99.90
46364;DHT22;32071;49.036;9.344;2024-02-28T07:33:09;6.80;99.90
46364;DHT22;32071;49.036;9.344;2024-02-28T07:35:47;6.80;99.90
46364;DHT22;32071;49.036;9.344;2024-02-28T07:38:13;6.80;99.90
46364;DHT22;32071;49.036;9.344;2024-02-28T07:40:38;6.80;99.90
46364;DHT22;32071;49.036;9.344;2024-02-28T07:43:04;6.90;99.90
46364;DHT22;32071;49.036;9.344;2024-02-28T07:45:29;6.80;99.90
46364;DHT22;32071;49.036;9.344;2024-02-28T07:47:55;6.80;99.90
46364;DHT22;32071;49.036;9.344;2024-02-28T07:50:20;6.80;99.90
46364;DHT22;32071;49.036;9.344;2024-02-28T07:52:46;6.80;99.90
46364;DHT22;32071;49.036;9.344;2024-02-28T07:55:12;6.80;99.90
46364;DHT22;32071;49.036;9.344;2024-02-28T07:57:37;6.90;99.90
46364;DHT22;32071;49.036;9.344;2024-02-28T08:00:04;6.90;99.90
46364;DHT22;32071;49.036;9.344;2024-02-28T08:02:30;6.90;99.90
46364;DHT22;32071;49.036;9.344;2024-02-28T08:04:56;6.80;99.90
46364;DHT22;32071;49.036;9.344;2024-02-28T08:07:21;6.70;99.90
46364;DHT22;32071;49.036;9.344;2024-02-28T08:09:47;6.60;99.90
46364;DHT22;32071;49.036;9.344;2024-02-28T08:12:12;6.60;99.90
46364;DHT22;32071;49.036;9.344;2024-02-28T08:14:38;6.60;99.90
46364;DHT22;32071;49.036;9.344;2024-02-28T08:17:04;6.60;99.90
46364;DHT22;32071;49.036;9.344;2024-02-28T08:19:29;6.60;99.90
46364;DHT22;32071;49.036;9.344;2024-02-28T08:21:55;6.60;99.90
46364;DHT22;32071;49.036;9.344;2024-02-28T08:24:20;6.60;99.90
46364;DHT22;32071;49.036;9.344;2024-02-28T08:26:46;6.70;99.90
46364;DHT22;32071;49.036;9.344;2024-02-28T08:29:12;6.80;99.90
46364;DHT22;32071;49.036;9.344;2024-02-28T08:31:44;6.80;99.90
46364;DHT22;32071;49.036;9.344;2024-02-28T08:34:09;6.80;99.90
46364;DHT22;32071;49.036;9.344;2024-02-28T08:36:35;6.70;99.90
46364;DHT22;32071;49.036;9.344;2024-02-28T08:39:02;6.70;99.90
46364;DHT22;32071;49.036;9.344;2024-02-28T08:41:31;6.70;99.90
46364;DHT22;32071;49.036;9.344;2024-02-28T08:43:56;6.80;99.90
46364;DHT22;32071;49.036;9.344;2024-02-28T08:46:22;6.80;99.90
46364;DHT22;32071;49.036;9.344;2024-02-28T08:48:47;6.90;99.90
46364;DHT22;32071;49.036;9.344;2024-02-28T08:51:13;7.00;99.90
46364;DHT22;32071;49.036;9.344;2024-02-28T08:53:40;7.00;99.90
46364;DHT22;32071;49.036;9.344;2024-02-28T08:56:05;7.00;99.90
46364;DHT22;32071;49.036;9.344;2024-02-28T08:58:31;6.90;99.90
46364;DHT22;32071;49.036;9.344;2024-02-28T09:00:57;7.00;99.90
46364;DHT22;32071;49.036;9.344;2024-02-28T09:03:22;7.00;99.90
46364;DHT22;32071;49.036;9.344;2024-02-28T09:05:48;7.10;99.90
46364;DHT22;32071;49.036;9.344;2024-02-28T09:08:14;7.10;99.90
46364;DHT22;32071;49.036;9.344;2024-02-28T09:10:39;7.00;99.90
46364;DHT22;32071;49.036;9.344;2024-02-28T09:13:05;7.00;99.90
46364;DHT22;32071;49.036;9.344;2024-02-28T09:15:32;7.10;99.90
46364;DHT22;32071;49.036;9.344;2024-02-28T09:17:59;7.10;99.90
46364;DHT22;32071;49.036;9.344;2024-02-28T09:20:26;7.00;99.90
46364;DHT22;32071;49.036;9.344;2024-02-28T09:22:52;7.10;99.90
46364;DHT22;32071;49.036;9.344;2024-02-28T09:25:17;7.10;99.90
46364;DHT22;32071;49.036;9.344;2024-02-28T09:27:44;7.10;99.90
46364;DHT22;32071;49.036;9.344;2024-02-28T09:30:09;7.20;99.90
46364;DHT22;32071;49.036;9.344;2024-02-28T09:32:35;7.30;99.90
46364;DHT22;32071;49.036;9.344;2024-02-28T09:35:03;7.40;99.90
46364;DHT22;32071;49.036;9.344;2024-02-28T09:37:29;7.40;99.90
46364;DHT22;32071;49.036;9.344;2024-02-28T09:39:55;7.40;99.90
46364;DHT22;32071;49.036;9.344;2024-02-28T09:42:20;7.40;99.90
46364;DHT22;32071;49.036;9.344;2024-02-28T09:44:46;7.50;99.90
46364;DHT22;32071;49.036;9.344;2024-02-28T09:47:11;7.60;99.90
46364;DHT22;32071;49.036;9.344;2024-02-28T09:49:38;7.50;99.90
46364;DHT22;32071;49.036;9.344;2024-02-28T09:52:04;7.50;99.90
46364;DHT22;32071;49.036;9.344;2024-02-28T09:54:29;7.60;99.90
46364;DHT22;32071;49.036;9.344;2024-02-28T09:56:55;7.50;99.90
46364;DHT22;32071;49.036;9.344;2024-02-28T09:59:23;7.50;99.90
46364;DHT22;32071;49.036;9.344;2024-02-28T10:01:55;7.50;99.90
46364;DHT22;32071;49.036;9.344;2024-02-28T10:04:25;7.50;99.90
46364;DHT22;32071;49.036;9.344;2024-02-28T10:06:51;7.50;99.90
46364;DHT22;32071;49.036;9.344;2024-02-28T10:09:17;7.60;99.90
46364;DHT22;32071;49.036;9.344;2024-02-28T10:11:42;7.60;99.90
46364;DHT22;32071;49.036;9.344;2024-02-28T10:14:18;7.60;99.90
46364;DHT22;32071;49.036;9.344;2024-02-28T10:16:44;7.80;99.90
46364;DHT22;32071;49.036;9.344;2024-02-28T10:19:10;7.90;99.90
46364;DHT22;32071;49.036;9.344;2024-02-28T10:21:35;7.90;99.90
46364;DHT22;32071;49.036;9.344;2024-02-28T10:24:01;8.00;99.90
46364;DHT22;32071;49.036;9.344;2024-02-28T10:26:27;8.00;99.90
46364;DHT22;32071;49.036;9.344;2024-02-28T10:28:55;8.00;99.90
46364;DHT22;32071;49.036;9.344;2024-02-28T10:31:21;8.00;99.90
46364;DHT22;32071;49.036;9.344;2024-02-28T10:33:46;8.00;99.90
46364;DHT22;32071;49.036;9.344;2024-02-28T10:36:12;8.10;99.90
46364;DHT22;32071;49.036;9.344;2024-02-28T10:38:38;8.10;99.90
46364;DHT22;32071;49.036;9.344;2024-02-28T10:41:04;8.20;99.90
46364;DHT22;32071;49.036;9.344;2024-02-28T10:43:29;8.20;99.90
46364;DHT22;32071;49.036;9.344;2024-02-28T10:45:58;8.30;99.90
46364;DHT22;32071;49.036;9.344;2024-02-28T10:48:27;8.40;99.90
46364;DHT22;32071;49.036;9.344;2024-02-28T10:50:53;8.30;99.90
46364;DHT22;32071;49.036;9.344;2024-02-28T10:53:34;8.50;99.90
46364;DHT22;32071;49.036;9.344;2024-02-28T10:56:02;8.40;99.90
46364;DHT22;32071;49.036;9.344;2024-02-28T10:58:34;8.30;99.90
46364;DHT22;32071;49.036;9.344;2024-02-28T11:01:01;8.20;99.90
46364;DHT22;32071;49.036;9.344;2024-02-28T11:03:27;8.30;99.90
46364;DHT22;32071;49.036;9.344;2024-02-28T11:05:53;8.20;99.90
46364;DHT22;32071;49.036;9.344;2024-02-28T11:08:29;8.20;99.90
46364;DHT22;32071;49.036;9.344;2024-02-28T11:11:02;8.20;99.90
46364;DHT22;32071;49.036;9.344;2024-02-28T11:13:32;8.20;99.90
46364;DHT22;32071;49.036;9.344;2024-02-28T11:16:07;8.10;99.90
46364;DHT22;32071;49.036;9.344;2024-02-28T11:18:33;8.10;99.90
46364;DHT22;32071;49.036;9.344;2024-02-28T11:20:59;8.10;99.90
46364;DHT22;32071;49.036;9.344;2024-02-28T11:23:24;8.00;99.90
46364;DHT22;32071;49.036;9.344;2024-02-28T11:25:50;8.10;99.90
46364;DHT22;32071;49.036;9.344;2024-02-28T11:28:16;8.10;99.90
46364;DHT22;32071;49.036;9.344;2024-02-28T11:30:41;8.10;99.90
46364;DHT22;32071;49.036;9.344;2024-02-28T11:33:07;8.10;99.90
46364;DHT22;32071;49.036;9.344;2024-02-28T11:35:35;8.20;99.90
46364;DHT22;32071;49.036;9.344;2024-02-28T11:38:00;8.20;99.90
46364;DHT22;32071;49.036;9.344;2024-02-28T11:40:26;8.10;99.90
46364;DHT22;32071;49.036;9.344;2024-02-28T11:42:53;8.10;99.90
46364;DHT22;32071;49.036;9.344;2024-02-28T11:45:19;8.20;99.90
46364;DHT22;32071;49.036;9.344;2024-02-28T11:47:45;8.30;99.90
46364;DHT22;32071;49.036;9.344;2024-02-28T11:50:11;8.40;99.90
46364;DHT22;32071;49.036;9.344;2024-02-28T11:52:36;8.40;99.90
46364;DHT22;32071;49.036;9.344;2024-02-28T11:55:03;8.60;99.90
46364;DHT22;32071;49.036;9.344;2024-02-28T11:57:30;8.70;99.90
46364;DHT22;32071;49.036;9.344;2024-02-28T12:00:08;8.80;99.90
46364;DHT22;32071;49.036;9.344;2024-02-28T12:02:42;8.90;99.90
46364;DHT22;32071;49.036;9.344;2024-02-28T12:05:08;8.90;99.90
46364;DHT22;32071;49.036;9.344;2024-02-28T12:07:34;8.90;99.90
46364;DHT22;32071;49.036;9.344;2024-02-28T12:10:00;8.90;99.90
46364;DHT22;32071;49.036;9.344;2024-02-28T12:12:29;9.00;99.90
46364;DHT22;32071;49.036;9.344;2024-02-28T12:14:59;9.10;99.90
46364;DHT22;32071;49.036;9.344;2024-02-28T12:17:25;9.20;99.90
46364;DHT22;32071;49.036;9.344;2024-02-28T12:19:52;9.20;99.90
46364;DHT22;32071;49.036;9.344;2024-02-28T12:22:17;9.40;99.90
46364;DHT22;32071;49.036;9.344;2024-02-28T12:24:43;9.40;99.90
46364;DHT22;32071;49.036;9.344;2024-02-28T12:27:09;9.50;99.90
46364;DHT22;32071;49.036;9.344;2024-02-28T12:29:34;9.40;99.90
46364;DHT22;32071;49.036;9.344;2024-02-28T12:32:00;9.50;99.90
46364;DHT22;32071;49.036;9.344;2024-02-28T12:34:25;9.60;99.90
46364;DHT22;32071;49.036;9.344;2024-02-28T12:36:52;9.50;99.90
46364;DHT22;32071;49.036;9.344;2024-02-28T12:39:17;9.30;99.90
46364;DHT22;32071;49.036;9.344;2024-02-28T12:41:43;9.30;99.90
46364;DHT22;32071;49.036;9.344;2024-02-28T12:44:08;9.30;99.90
46364;DHT22;32071;49.036;9.344;2024-02-28T12:46:36;9.20;99.90
46364;DHT22;32071;49.036;9.344;2024-02-28T12:49:02;9.20;99.90
46364;DHT22;32071;49.036;9.344;2024-02-28T12:54:03;9.20;99.90
46364;DHT22;32071;49.036;9.344;2024-02-28T12:56:28;9.40;99.90
46364;DHT22;32071;49.036;9.344;2024-02-28T12:58:54;9.30;99.90
46364;DHT22;32071;49.036;9.344;2024-02-28T13:01:19;9.50;99.90
46364;DHT22;32071;49.036;9.344;2024-02-28T13:03:45;9.60;99.90
46364;DHT22;32071;49.036;9.344;2024-02-28T13:06:10;9.80;99.90
46364;DHT22;32071;49.036;9.344;2024-02-28T13:08:36;9.80;99.90
46364;DHT22;32071;49.036;9.344;2024-02-28T13:11:02;9.70;99.90
46364;DHT22;32071;49.036;9.344;2024-02-28T13:13:28;9.80;99.90
46364;DHT22;32071;49.036;9.344;2024-02-28T13:15:54;9.90;99.90
46364;DHT22;32071;49.036;9.344;2024-02-28T13:18:19;10.10;99.90
46364;DHT22;32071;49.036;9.344;2024-02-28T13:20:45;10.20;99.90
46364;DHT22;32071;49.036;9.344;2024-02-28T13:23:11;10.30;99.90
46364;DHT22;32071;49.036;9.344;2024-02-28T13:25:36;10.30;99.90
46364;DHT22;32071;49.036;9.344;2024-02-28T13:28:02;10.20;99.90
46364;DHT22;32071;49.036;9.344;2024-02-28T13:30:28;9.90;99.90
46364;DHT22;32071;49.036;9.344;2024-02-28T13:32:53;9.60;99.90
46364;DHT22;32071;49.036;9.344;2024-02-28T13:35:19;9.60;99.90
46364;DHT22;32071;49.036;9.344;2024-02-28T13:37:44;9.70;99.90
46364;DHT22;32071;49.036;9.344;2024-02-28T13:40:10;9.80;99.90
46364;DHT22;32071;49.036;9.344;2024-02-28T13:42:36;9.90;99.90
46364;DHT22;32071;49.036;9.344;2024-02-28T13:45:05;10.20;99.90
46364;DHT22;32071;49.036;9.344;2024-02-28T13:47:34;10.30;99.90
46364;DHT22;32071;49.036;9.344;2024-02-28T13:50:00;10.30;99.90
46364;DHT22;32071;49.036;9.344;2024-02-28T13:52:26;10.40;99.90
46364;DHT22;32071;49.036;9.344;2024-02-28T13:54:51;10.60;99.90
46364;DHT22;32071;49.036;9.344;2024-02-28T13:57:17;10.70;99.90
46364;DHT22;32071;49.036;9.344;2024-02-28T13:59:43;10.80;99.90
46364;DHT22;32071;49.036;9.344;2024-02-28T14:02:11;10.90;99.90
46364;DHT22;32071;49.036;9.344;2024-02-28T14:04:37;11.00;99.90
46364;DHT22;32071;49.036;9.344;2024-02-28T14:07:03;10.90;99.90
46364;DHT22;32071;49.036;9.344;2024-02-28T14:09:29;10.80;99.90
46364;DHT22;32071;49.036;9.344;2024-02-28T14:11:54;10.80;99.90
46364;DHT22;32071;49.036;9.344;2024-02-28T14:14:20;10.50;99.90
46364;DHT22;32071;49.036;9.344;2024-02-28T14:16:45;10.20;99.90
46364;DHT22;32071;49.036;9.344;2024-02-28T14:19:11;10.10;99.90
46364;DHT22;32071;49.036;9.344;2024-02-28T14:21:37;10.30;99.90
46364;DHT22;32071;49.036;9.344;2024-02-28T14:24:02;10.50;99.90
46364;DHT22;32071;49.036;9.344;2024-02-28T14:26:28;10.70;99.90
46364;DHT22;32071;49.036;9.344;2024-02-28T14:28:53;11.00;99.90
46364;DHT22;32071;49.036;9.344;2024-02-28T14:31:22;11.20;99.90
46364;DHT22;32071;49.036;9.344;2024-02-28T14:33:47;11.10;99.90
46364;DHT22;32071;49.036;9.344;2024-02-28T14:36:13;10.90;99.90
46364;DHT22;32071;49.036;9.344;2024-02-28T14:38:39;10.80;99.90
46364;DHT22;32071;49.036;9.344;2024-02-28T14:41:05;10.70;99.90
46364;DHT22;32071;49.036;9.344;2024-02-28T14:43:32;10.60;99.90
46364;DHT22;32071;49.036;9.344;2024-02-28T14:45:58;10.50;99.90
46364;DHT22;32071;49.036;9.344;2024-02-28T14:48:23;10.50;99.90
46364;DHT22;32071;49.036;9.344;2024-02-28T14:50:49;10.50;99.90
46364;DHT22;32071;49.036;9.344;2024-02-28T14:53:15;10.50;99.90
46364;DHT22;32071;49.036;9.344;2024-02-28T14:55:42;10.50;99.90
46364;DHT22;32071;49.036;9.344;2024-02-28T14:58:10;10.40;99.90
46364;DHT22;32071;49.036;9.344;2024-02-28T15:00:35;10.40;99.90
46364;DHT22;32071;49.036;9.344;2024-02-28T15:03:01;10.30;99.90
46364;DHT22;32071;49.036;9.344;2024-02-28T15:05:26;10.30;99.90
46364;DHT22;32071;49.036;9.344;2024-02-28T15:07:52;10.30;99.90
46364;DHT22;32071;49.036;9.344;2024-02-28T15:10:20;10.20;99.90
46364;DHT22;32071;49.036;9.344;2024-02-28T15:12:45;10.30;99.90
46364;DHT22;32071;49.036;9.344;2024-02-28T15:15:11;10.30;99.90
46364;DHT22;32071;49.036;9.344;2024-02-28T15:17:37;10.40;99.90
46364;DHT22;32071;49.036;9.344;2024-02-28T15:20:03;10.40;99.90
46364;DHT22;32071;49.036;9.344;2024-02-28T15:22:29;10.30;99.90
46364;DHT22;32071;49.036;9.344;2024-02-28T15:24:55;10.30;99.90
46364;DHT22;32071;49.036;9.344;2024-02-28T15:27:21;10.30;99.90
46364;DHT22;32071;49.036;9.344;2024-02-28T15:29:47;10.20;99.90
46364;DHT22;32071;49.036;9.344;2024-02-28T15:32:12;10.10;99.90
46364;DHT22;32071;49.036;9.344;2024-02-28T15:34:38;10.00;99.90
46364;DHT22;32071;49.036;9.344;2024-02-28T15:37:04;9.90;99.90
46364;DHT22;32071;49.036;9.344;2024-02-28T15:39:30;9.90;99.90